Flight Track Log - Related Links

Times and Time Zones

All times are in EDT time to prevent confusion due to time zone crossing. See the AWE759 flight status page for this flight to view local times or setup timezone preferences in your user account.

Time Position Orientation Groundspeed Altitude Reporting Facility
EDT Latitude Longitude Course Direction KTS MPH feet Rate Location/Type
Wed 06:42:43 PM 39.8526 -75.2744 241° Southwest 142 163 1,600  Level FlightAware ADS-B
Wed 06:42:46 PM 39.8512 -75.2769 234° Southwest 133 153 1,900 4,500 Climbing FlightAware ADS-B
Wed 06:42:51 PM 39.8493 -75.2797 229° Southwest 129 148 2,200 3,000 Climbing FlightAware ADS-B
Wed 06:42:58 PM 39.8466 -75.2833 226° Southwest 133 153 2,500 2,087 Climbing FlightAware ADS-B
Wed 06:43:14 PM 39.8381 -75.2927 220° Southwest 156 180 3,000 1,935 Climbing FlightAware ADS-B
Wed 06:43:29 PM 39.8290 -75.3026 220° Southwest 178 205 3,500 2,211 Climbing FlightAware ADS-B
Wed 06:43:33 PM 39.8265 -75.3053 220° Southwest 182 209 3,700 2,667 Climbing FlightAware ADS-B
Wed 06:43:38 PM 39.8230 -75.3082 212° Southwest 187 215 3,900 2,400 Climbing FlightAware ADS-B
Wed 06:43:43 PM 39.8192 -75.3109 209° Southwest 193 222 4,100 2,667 Climbing FlightAware ADS-B
Wed 06:43:47 PM 39.8158 -75.3126 201° Southwest 199 229 4,300 2,667 Climbing FlightAware ADS-B
Wed 06:43:52 PM 39.8115 -75.3140 194° South 207 238 4,500 2,500 Climbing FlightAware ADS-B
Wed 06:43:59 PM 39.8047 -75.3154 189° South 218 251 4,800 2,571 Climbing FlightAware ADS-B
Wed 06:44:06 PM 39.7975 -75.3163 185° South 227 261 5,100 2,727 Climbing FlightAware ADS-B
Wed 06:44:21 PM 39.7813 -75.3176 184° South 241 277 5,800 3,000 Climbing FlightAware ADS-B
Wed 06:44:36 PM 39.7638 -75.3193 184° South 249 287 6,600 3,290 Climbing FlightAware ADS-B
Wed 06:44:52 PM 39.7456 -75.3211 184° South 252 290 7,500 3,517 Climbing FlightAware ADS-B
Wed 06:45:05 PM 39.7300 -75.3226 184° South 255 293 8,300 2,600 Climbing FlightAware ADS-B
Wed 06:45:22 PM 39.7108 -75.3242 184° South 259 298 8,800 2,063 Climbing FlightAware ADS-B
Wed 06:45:37 PM 39.6926 -75.3257 184° South 257 296 9,400 2,800 Climbing FlightAware ADS-B
Wed 06:46:07 PM 39.6564 -75.3288 184° South 273 314 10,900 2,262 Climbing FlightAware ADS-B
Wed 06:46:38 PM 39.6147 -75.3328 184° South 312 359 11,700 1,935 Climbing FlightAware ADS-B
Wed 06:47:09 PM 39.5671 -75.3369 184° South 340 391 12,900 2,806 Climbing FlightAware ADS-B
Wed 06:47:40 PM 39.5175 -75.3398 183° South 347 399 14,600 2,857 Climbing FlightAware ADS-B
Wed 06:48:12 PM 39.4653 -75.3442 184° South 351 404 15,900 1,452 Climbing FlightAware ADS-B
Wed 06:48:42 PM 39.4169 -75.3480 183° South 348 400 16,100 492 Climbing FlightAware ADS-B
Wed 06:49:13 PM 39.3664 -75.3519 183° South 357 411 16,400 716 Climbing FlightAware ADS-B
Wed 06:49:49 PM 39.3072 -75.3569 184° South 365 420 16,900 716 Climbing FlightAware ADS-B
Wed 06:50:20 PM 39.2550 -75.3614 184° South 367 422 17,200 1,500 Climbing FlightAware ADS-B
Wed 06:50:53 PM 39.1979 -75.3664 184° South 368 423 18,500 2,429 Climbing FlightAware ADS-B
Wed 06:51:02 PM 39.1832 -75.3676 184° South 367 422 18,900 2,438 Climbing FlightAware ADS-B
Wed 06:51:25 PM 39.1436 -75.3731 186° South 377 434 19,800 2,151 Climbing FlightAware ADS-B
Wed 06:51:55 PM 39.0899 -75.3822 187° South 391 450 20,800 2,164 Climbing FlightAware ADS-B
Wed 06:52:26 PM 39.0346 -75.3904 187° South 399 459 22,000 2,286 Climbing FlightAware ADS-B
Wed 06:52:58 PM 38.9747 -75.3997 187° South 405 466 23,200 2,156 Climbing FlightAware ADS-B
Wed 06:53:30 PM 38.9153 -75.4090 187° South 413 475 24,300 1,881 Climbing FlightAware ADS-B
Wed 06:54:05 PM 38.8471 -75.4194 187° South 428 493 25,300 1,727 Climbing FlightAware ADS-B
Wed 06:54:36 PM 38.7855 -75.4285 187° South 434 499 26,200 1,548 Climbing FlightAware ADS-B
Wed 06:55:07 PM 38.7227 -75.4376 186° South 445 512 26,900 1,548 Climbing FlightAware ADS-B
Wed 06:55:38 PM 38.6597 -75.4467 186° South 451 519 27,800 1,650 Climbing FlightAware ADS-B
Wed 06:56:27 PM 38.5610 -75.4610 186° South 462 532 29,100 1,820 Climbing FlightAware ADS-B
Wed 06:57:07 PM 38.4760 -75.4730 186° South 458 527 30,500 2,175 Climbing FlightAware ADS-B
Wed 06:57:47 PM 38.3940 -75.4850 187° South 452 520 32,000 2,280 Climbing FlightAware ADS-B
Wed 06:57:57 PM 38.3675 -75.4903 189° South 449 517 32,400 2,129 Climbing FlightAware ADS-B
Wed 06:58:18 PM 38.3260 -75.5082 199° South 440 506 33,100 1,953 Climbing FlightAware ADS-B
Wed 06:58:40 PM 38.2891 -75.5370 211° Southwest 432 497 33,800 1,925 Climbing FlightAware ADS-B
Wed 06:59:11 PM 38.2388 -75.5837 216° Southwest 430 495 34,800 1,875 Climbing FlightAware ADS-B
Wed 06:59:44 PM 38.1862 -75.6333 217° Southwest 425 489 35,800 1,043 Climbing FlightAware ADS-B
Wed 07:00:20 PM 38.1301 -75.6860 216° Southwest 418 481 36,000 176 Climbing FlightAware ADS-B
Wed 07:00:52 PM 38.0812 -75.7317 216° Southwest 415 478 36,000  Level FlightAware ADS-B
Wed 07:01:32 PM 38.0260 -75.7840 217° Southwest 413 475 36,000  Level FlightAware ADS-B
Wed 07:02:17 PM 37.9550 -75.8490 216° Southwest 417 480 36,000  Level FlightAware ADS-B
Wed 07:02:48 PM 37.9021 -75.8985 216° Southwest 416 479 36,000  Level FlightAware ADS-B
Wed 07:03:20 PM 37.8526 -75.9445 216° Southwest 416 479 36,000  Level FlightAware ADS-B
Wed 07:03:53 PM 37.8009 -75.9921 216° Southwest 416 479 36,000  Level FlightAware ADS-B
Wed 07:04:24 PM 37.7521 -76.0373 216° Southwest 416 479 36,000  Level FlightAware ADS-B
Wed 07:04:57 PM 37.7070 -76.0790 216° Southwest 416 479 36,000 692 Level FlightAware ADS-B
Wed 07:05:42 PM 37.6370 -76.1430 216° Southwest 400 460 36,900 828 Climbing FlightAware ADS-B
Wed 07:07:22 PM 37.5080 -76.2630 216° Southwest 388 447 38,000 471 Climbing FlightAware ADS-B
Wed 07:08:02 PM 37.4380 -76.3270 216° Southwest 397 457 38,000  Level FlightAware ADS-B
Wed 07:08:23 PM 37.3958 -76.3658 216° Southwest 401 461 38,000  Level FlightAware ADS-B
Wed 07:08:57 PM 37.3444 -76.4128 216° Southwest 406 467 38,000  Level FlightAware ADS-B
Wed 07:09:28 PM 37.2976 -76.4559 216° Southwest 406 467 38,000  Level FlightAware ADS-B
Wed 07:10:13 PM 37.2291 -76.5186 216° Southwest 405 466 38,000  Level FlightAware ADS-B
Wed 07:10:48 PM 37.1765 -76.5665 216° Southwest 404 465 38,000  Level FlightAware ADS-B
Wed 07:11:37 PM 37.1160 -76.6210 216° Southwest 398 458 38,000  Level FlightAware ADS-B
Wed 07:12:32 PM 37.0460 -76.6850 216° Southwest 402 463 38,000  Level FlightAware ADS-B
Wed 07:13:22 PM 36.9580 -76.7650 216° Southwest 402 463 38,000  Level FlightAware ADS-B
Wed 07:14:02 PM 36.9070 -76.8120 216° Southwest 402 463 38,000  Level FlightAware ADS-B
Wed 07:14:52 PM 36.7860 -76.7980 175° South 402 463 38,000  Level FlightAware ADS-B
Wed 07:15:22 PM 36.7170 -76.8080 187° South 422 486 38,000  Level FlightAware ADS-B
Wed 07:16:12 PM 36.6250 -76.8220 187° South 423 487 38,000  Level FlightAware ADS-B
Wed 07:16:52 PM 36.5590 -76.8320 187° South 423 487 38,000  Level FlightAware ADS-B
Wed 07:17:42 PM 36.4430 -76.8500 187° South 435 501 38,000  Level FlightAware ADS-B
Wed 07:18:22 PM 36.3750 -76.8600 187° South 435 501 38,000  Level FlightAware ADS-B
Wed 07:19:02 PM 36.3070 -76.8700 187° South 435 501 38,000  Level FlightAware ADS-B
Wed 07:19:42 PM 36.2390 -76.8810 187° South 435 501 38,000  Level FlightAware ADS-B
Wed 07:20:22 PM 36.1710 -76.8910 187° South 435 501 38,000  Level FlightAware ADS-B
Wed 07:21:12 PM 36.0860 -76.9040 187° South 435 501 38,000  Level FlightAware ADS-B
Wed 07:21:52 PM 36.0180 -76.9140 187° South 435 501 38,000  Level FlightAware ADS-B
Wed 07:22:32 PM 35.9510 -76.9250 188° South 435 501 38,000  Level FlightAware ADS-B
Wed 07:23:02 PM 35.8580 -77.1380 242° Southwest 408 470 38,000  Level FlightAware ADS-B
Wed 07:23:47 PM 35.7970 -77.1970 218° Southwest 408 470 38,000  Level FlightAware ADS-B
Wed 07:24:27 PM 35.7370 -77.2630 222° Southwest 398 458 38,000  Level FlightAware ADS-B
Wed 07:25:02 PM 35.6890 -77.3120 220° Southwest 398 458 38,000  Level FlightAware ADS-B
Wed 07:25:47 PM 35.6200 -77.3820 220° Southwest 402 463 38,000  Level FlightAware ADS-B
Wed 07:26:32 PM 35.5570 -77.4460 220° Southwest 401 461 38,000  Level FlightAware ADS-B
Wed 07:27:17 PM 35.4910 -77.5140 220° Southwest 400 460 38,000  Level FlightAware ADS-B
Wed 07:27:47 PM 35.4500 -77.5550 219° Southwest 401 461 38,000  Level FlightAware ADS-B
Wed 07:28:42 PM 35.3790 -77.6250 219° Southwest 401 461 38,000  Level FlightAware ADS-B
Wed 07:29:22 PM 35.3190 -77.6860 220° Southwest 401 461 38,000  Level FlightAware ADS-B
Wed 07:30:02 PM 35.2700 -77.7350 219° Southwest 401 461 38,000  Level FlightAware ADS-B
Wed 07:30:42 PM 35.2210 -77.7830 219° Southwest 401 461 38,000  Level FlightAware ADS-B
Wed 07:31:22 PM 35.1720 -77.8320 219° Southwest 401 461 38,000  Level FlightAware ADS-B
Wed 07:32:12 PM 35.1100 -77.8930 219° Southwest 401 461 38,000  Level FlightAware ADS-B
Wed 07:32:52 PM 35.0610 -77.9410 219° Southwest 401 461 38,000  Level FlightAware ADS-B
Wed 07:33:32 PM 35.0120 -77.9900 219° Southwest 401 461 38,000  Level FlightAware ADS-B
Wed 07:34:17 PM 34.9630 -78.0380 219° Southwest 401 461 38,000  Level FlightAware ADS-B
Wed 07:34:52 PM 34.9140 -78.0870 219° Southwest 401 461 38,000  Level FlightAware ADS-B
Wed 07:36:42 PM 34.6970 -78.3100 220° Southwest 390 449 38,000  Level FlightAware ADS-B
Wed 07:37:57 PM 34.5940 -78.4120 219° Southwest 388 447 38,000  Level FlightAware ADS-B
Wed 07:38:39 PM 34.5533 -78.4558 219° Southwest 395 455 38,000  Level Jacksonville Center
Wed 07:39:39 PM 34.4708 -78.5431 221° Southwest 395 455 38,000  Level Jacksonville Center
Wed 07:40:39 PM 34.3839 -78.6281 219° Southwest 402 463 38,000  Level Jacksonville Center
Wed 07:41:39 PM 34.2992 -78.7100 219° Southwest 402 463 38,000  Level Jacksonville Center
Wed 07:42:39 PM 34.2142 -78.7919 219° Southwest 397 457 38,000  Level Jacksonville Center
Wed 07:43:39 PM 34.1272 -78.8739 218° Southwest 397 457 38,000  Level Jacksonville Center
Wed 07:44:39 PM 34.0419 -78.9556 218° Southwest 397 457 38,000  Level Jacksonville Center
Wed 07:45:39 PM 33.9569 -79.0344 218° Southwest 397 457 38,000  Level Jacksonville Center
Wed 07:46:39 PM 33.8717 -79.1158 218° Southwest 397 457 38,000  Level Jacksonville Center
Wed 07:47:39 PM 33.7883 -79.1942 218° Southwest 397 457 38,000  Level Jacksonville Center
Wed 07:48:39 PM 33.7072 -79.2700 218° Southwest 397 457 38,000  Level Jacksonville Center
Wed 07:49:39 PM 33.6239 -79.3508 219° Southwest 390 449 38,000  Level Jacksonville Center
Wed 07:50:39 PM 33.5406 -79.4314 219° Southwest 385 443 38,000  Level Jacksonville Center
Wed 07:51:39 PM 33.4531 -79.5144 218° Southwest 395 455 38,000  Level Jacksonville Center
Wed 07:52:39 PM 33.3656 -79.5950 218° Southwest 395 455 38,000  Level Jacksonville Center
Wed 07:53:39 PM 33.2678 -79.6853 218° Southwest 400 460 38,000  Level Jacksonville Center
Wed 07:54:39 PM 33.1819 -79.7653 218° Southwest 400 460 38,000  Level Jacksonville Center
Wed 07:55:39 PM 33.0944 -79.8503 219° Southwest 400 460 38,000  Level Jacksonville Center
Wed 07:56:39 PM 33.0064 -79.9300 217° Southwest 405 466 38,000  Level Jacksonville Center
Wed 07:57:39 PM 32.9167 -80.0122 218° Southwest 405 466 38,000  Level Jacksonville Center
Wed 07:58:39 PM 32.8244 -80.0894 215° Southwest 405 466 38,000  Level Jacksonville Center
Wed 07:59:39 PM 32.7300 -80.1614 213° Southwest 405 466 38,000  Level Jacksonville Center
Wed 08:00:39 PM 32.6311 -80.2308 211° Southwest 410 472 38,000  Level Jacksonville Center
Wed 08:01:39 PM 32.5367 -80.3003 212° Southwest 410 472 38,000  Level Jacksonville Center
Wed 08:02:39 PM 32.4400 -80.3744 213° Southwest 410 472 38,000  Level Jacksonville Center
Wed 08:08:47 PM 31.7680 -80.6860 213° Southwest 432 497 38,000  Level FlightAware ADS-B
Wed 08:09:32 PM 31.6810 -80.7210 199° South 434 499 38,000 -494 Level FlightAware ADS-B
Wed 08:10:12 PM 31.6050 -80.7520 199° South 431 496 37,300 -1,350 Descending FlightAware ADS-B
Wed 08:10:52 PM 31.5280 -80.7840 200° South 433 498 36,200 -1,575 Descending FlightAware ADS-B
Wed 08:11:32 PM 31.4580 -80.8120 199° South 437 503 35,200 -706 Descending FlightAware ADS-B
Wed 08:12:17 PM 31.3820 -80.8430 199° South 437 503 35,200  Level FlightAware ADS-B
Wed 08:12:57 PM 31.3170 -80.8690 199° South 437 503 35,200  Level FlightAware ADS-B
Wed 08:13:37 PM 31.2520 -80.8950 199° South 437 503 35,200  Level FlightAware ADS-B
Wed 08:14:17 PM 31.1870 -80.9210 199° South 437 503 35,200  Level FlightAware ADS-B
Wed 08:14:57 PM 31.1220 -80.9480 200° South 437 503 35,200  Level FlightAware ADS-B
Wed 08:15:47 PM 31.0410 -80.9800 199° South 437 503 35,200  Level FlightAware ADS-B
Wed 08:16:27 PM 30.9760 -81.0060 199° South 437 503 35,200  Level FlightAware ADS-B
Wed 08:17:07 PM 30.9110 -81.0320 199° South 437 503 35,200  Level FlightAware ADS-B
Wed 08:17:47 PM 30.8460 -81.0580 199° South 437 503 35,200  Level FlightAware ADS-B
Wed 08:18:27 PM 30.7810 -81.0850 200° South 437 503 35,200  Level FlightAware ADS-B
Wed 08:19:17 PM 30.6990 -81.1170 199° South 437 503 35,200  Level FlightAware ADS-B
Wed 08:19:57 PM 30.6340 -81.1430 199° South 437 503 35,200  Level FlightAware ADS-B
Wed 08:20:37 PM 30.5690 -81.1690 199° South 437 503 35,200 -4,708 Level FlightAware ADS-B
Wed 08:21:02 PM 30.2860 -81.1340 174° South 471 542 30,100 -4,371 Descending FlightAware ADS-B
Wed 08:21:47 PM 30.2010 -81.1310 178° South 471 542 30,100  Level FlightAware ADS-B
Wed 08:22:27 PM 30.1270 -81.1280 178° South 471 542 30,100  Level FlightAware ADS-B
Wed 08:23:07 PM 30.0530 -81.1250 178° South 471 542 30,100  Level FlightAware ADS-B
Wed 08:23:57 PM 29.9610 -81.1210 178° South 471 542 30,100  Level FlightAware ADS-B
Wed 08:24:37 PM 29.8870 -81.1180 178° South 471 542 30,100  Level FlightAware ADS-B
Wed 08:25:17 PM 29.8130 -81.1150 178° South 471 542 30,100  Level FlightAware ADS-B
Wed 08:25:47 PM 29.7570 -81.1130 178° South 471 542 30,100  Level FlightAware ADS-B
Wed 08:26:27 PM 29.6830 -81.1100 178° South 471 542 30,100 -4,142 Level FlightAware ADS-B
Wed 08:28:22 PM 29.4370 -81.1060 179° South 352 405 19,400 -4,181 Descending FlightAware ADS-B
Wed 08:29:02 PM 29.3780 -81.1040 178° South 352 405 19,300 -1,850 Descending FlightAware ADS-B
Wed 08:29:37 PM 29.3170 -81.1030 179° South 17,100 -2,700 Descending FlightAware ADS-B
Wed 08:30:22 PM 29.2360 -81.0980 177° South 356 410 15,700 -1,200 Descending FlightAware ADS-B
Wed 08:31:02 PM 29.1780 -81.0920 175° South 354 407 15,400 -1,200 Descending FlightAware ADS-B
Wed 08:31:47 PM 29.1080 -81.0870 176° South 339 390 14,000 -1,835 Descending FlightAware ADS-B
Wed 08:32:27 PM 29.0450 -81.0820 176° South 335 386 12,800 -1,553 Descending FlightAware ADS-B
Wed 08:33:12 PM 28.9680 -81.0740 175° South 309 356 11,800 -1,086 Descending FlightAware ADS-B
Wed 08:34:12 PM 28.8880 -81.0610 172° South 297 342 10,900 -1,080 Descending FlightAware ADS-B
Wed 08:34:52 PM 28.8290 -81.0510 172° South 290 334 10,000 -1,457 Descending FlightAware ADS-B
Wed 08:35:22 PM 28.7870 -81.0480 176° South 279 321 9,200 -1,600 Descending FlightAware ADS-B
Wed 08:35:37 PM 28.7740 -81.0550 205° Southwest 272 313 8,800 -2,100 Descending FlightAware ADS-B
Wed 08:35:42 PM 28.7660 -81.0630 221° Southwest 269 310 8,500 -2,727 Descending FlightAware ADS-B
Wed 08:36:32 PM 28.7310 -81.1240 237° Southwest 272 313 6,300 -1,950 Descending FlightAware ADS-B
Wed 08:37:02 PM 28.7050 -81.1530 224° Southwest 258 297 5,900 -600 Descending FlightAware ADS-B
Wed 08:37:22 PM 28.6860 -81.1690 216° Southwest 246 283 5,800 -840 Descending FlightAware ADS-B
Wed 08:37:52 PM 28.6590 -81.1940 219° Southwest 237 273 5,200 -1,385 Descending FlightAware ADS-B
Wed 08:38:27 PM 28.6310 -81.2210 220° Southwest 214 246 4,300 -1,500 Descending FlightAware ADS-B
Wed 08:38:52 PM 28.6120 -81.2400 221° Southwest 200 230 3,700 -1,418 Descending FlightAware ADS-B
Wed 08:39:22 PM 28.5930 -81.2610 224° Southwest 198 228 3,000 -1,309 Descending FlightAware ADS-B
Wed 08:39:47 PM 28.5760 -81.2800 224° Southwest 190 219 2,500 -764 Descending FlightAware ADS-B
Wed 08:40:17 PM 28.5570 -81.3000 223° Southwest 189 217 2,300 -200 Descending FlightAware ADS-B
Wed 08:40:47 PM 28.5350 -81.3170 214° Southwest 173 199 2,300  Level FlightAware ADS-B
Wed 08:41:02 PM 28.5240 -81.3200 193° South 150 173 2,300 -600 Level FlightAware ADS-B
Wed 08:41:27 PM 28.5090 -81.3210 183° South 133 153 1,900 -1,200 Descending FlightAware ADS-B
Wed 08:41:57 PM 28.4890 -81.3200 177° South 134 154 1,200 436 Descending FlightAware ADS-B
Wed 08:42:22 PM 28.5280 -81.3190 North 162 186 2,300 1,080 Climbing FlightAware ADS-B
Wed 08:42:47 PM 28.5130 -81.3210 187° South 140 161 2,100 -2,291 Descending FlightAware ADS-B
Wed 08:43:17 PM 28.4400 -81.3200 179° South 127 146 200 -3,800 Descending FlightAware ADS-B

Login

Don't have an account? Register now (free) for customized features, flight alerts, and more!